Time;durP1;ratioP1;P1;durP2;ratioP2;P2;SDS_P1;SDS_P2;PMS_P1;PMS_P2;Temp;Humidity;BMP_temperature;BMP_pressure;BME280_temperature;BME280_humidity;BME280_pressure;Samples;Min_cycle;Max_cycle;Signal;HPM_P1;HPM_P2
2022/08/26 00:01:07;;;;;;;6.53;6.00;;;20.90;99.90;;;;;;5008511;28;20241;-62
2022/08/26 00:03:35;;;;;;;7.10;6.40;;;20.80;99.90;;;;;;5006389;28;20194;-59
2022/08/26 00:06:00;;;;;;;7.40;6.75;;;20.90;99.90;;;;;;5011257;28;20187;-61
2022/08/26 00:08:26;;;;;;;6.53;6.03;;;20.90;99.90;;;;;;5003694;28;20191;-62
2022/08/26 00:10:52;;;;;;;6.50;6.10;;;20.90;99.90;;;;;;5009536;28;20210;-62
2022/08/26 00:13:17;;;;;;;6.67;6.07;;;20.90;99.90;;;;;;5009624;28;20211;-61
2022/08/26 00:15:45;;;;;;;7.27;6.77;;;20.80;99.90;;;;;;5006400;28;20184;-61
2022/08/26 00:18:11;;;;;;;7.10;6.60;;;20.80;99.90;;;;;;5005177;28;20714;-61
2022/08/26 00:20:38;;;;;;;7.13;6.57;;;20.80;99.90;;;;;;5008086;28;20293;-61
2022/08/26 00:23:03;;;;;;;6.60;6.03;;;20.70;99.90;;;;;;5000613;28;20268;-61
2022/08/26 00:25:29;;;;;;;6.53;6.03;;;20.60;99.90;;;;;;5005244;28;20640;-62
2022/08/26 00:27:55;;;;;;;8.23;7.43;;;20.70;99.90;;;;;;5010090;28;20213;-61
2022/08/26 00:30:24;;;;;;;7.50;6.90;;;20.70;99.90;;;;;;5009957;28;20606;-61
2022/08/26 00:32:50;;;;;;;6.32;5.78;;;20.60;99.90;;;;;;5007583;28;20672;-61
2022/08/26 00:35:16;;;;;;;6.00;5.60;;;20.60;99.90;;;;;;5010121;28;20202;-61
2022/08/26 00:37:42;;;;;;;7.47;6.87;;;20.70;99.90;;;;;;5006399;28;20199;-61
2022/08/26 00:40:12;;;;;;;7.20;6.60;;;20.60;99.90;;;;;;5004096;28;20215;-62
2022/08/26 00:42:37;;;;;;;7.30;6.70;;;20.60;99.90;;;;;;5009709;28;20654;-62
2022/08/26 00:45:04;;;;;;;5.80;5.40;;;20.60;99.90;;;;;;5010110;28;20235;-61
2022/08/26 00:47:36;;;;;;;8.50;6.38;;;20.60;99.90;;;;;;5003177;28;20209;-61
2022/08/26 00:50:05;;;;;;;6.40;5.80;;;20.70;99.90;;;;;;5012061;28;20206;-61
2022/08/26 00:52:31;;;;;;;7.10;6.40;;;20.70;99.90;;;;;;5012091;28;20219;-61
2022/08/26 00:55:16;;;;;;;6.70;6.17;;;20.70;99.90;;;;;;5012753;28;20201;-61
2022/08/26 00:57:43;;;;;;;7.32;6.82;;;20.70;99.90;;;;;;5012745;28;20186;-60
2022/08/26 01:00:16;;;;;;;7.35;6.75;;;20.60;99.90;;;;;;5009971;28;20289;-61
2022/08/26 01:02:43;;;;;;;6.90;6.40;;;20.60;99.90;;;;;;5003903;28;20551;-58
2022/08/26 01:05:10;;;;;;;7.10;6.40;;;20.60;99.90;;;;;;5013856;28;20184;-58
2022/08/26 01:07:37;;;;;;;7.32;6.72;;;20.50;99.90;;;;;;5011962;28;20272;-58
2022/08/26 01:10:07;;;;;;;7.03;6.43;;;20.50;99.90;;;;;;5012838;28;20242;-58
2022/08/26 01:12:38;;;;;;;6.80;6.25;;;20.50;99.90;;;;;;5012345;28;20218;-58
2022/08/26 01:15:05;;;;;;;6.78;6.28;;;20.40;99.90;;;;;;5013481;28;20182;-58
2022/08/26 01:17:30;;;;;;;6.80;6.30;;;20.40;99.90;;;;;;5010664;28;20238;-58
2022/08/26 01:20:05;;;;;;;6.63;6.10;;;20.30;99.90;;;;;;5011274;28;20202;-58
2022/08/26 01:22:58;;;;;;;6.70;6.20;;;20.30;99.90;;;;;;5006748;28;20655;-58
2022/08/26 01:25:27;;;;;;;6.72;6.22;;;20.30;99.90;;;;;;5007154;28;20198;-58
2022/08/26 01:27:56;;;;;;;6.70;6.20;;;20.20;99.90;;;;;;5012409;28;20186;-59
2022/08/26 01:30:26;;;;;;;7.07;6.32;;;20.20;99.90;;;;;;5012406;28;20211;-59
2022/08/26 01:32:55;;;;;;;7.15;6.65;;;20.20;99.90;;;;;;5014760;28;20207;-59
2022/08/26 01:35:21;;;;;;;7.00;6.40;;;20.20;99.90;;;;;;5012197;28;20191;-58
2022/08/26 01:37:48;;;;;;;7.47;6.87;;;20.20;99.90;;;;;;5007914;28;20200;-58
2022/08/26 01:40:20;;;;;;;6.80;6.20;;;20.20;99.90;;;;;;5007532;28;20210;-58
2022/08/26 01:42:47;;;;;;;7.25;6.75;;;20.10;99.90;;;;;;5012114;28;20664;-57
2022/08/26 01:45:25;;;;;;;7.35;6.65;;;20.10;99.90;;;;;;5012141;28;20575;-59
2022/08/26 01:47:55;;;;;;;7.18;6.68;;;20.10;99.90;;;;;;5008495;28;20549;-58
2022/08/26 01:50:29;;;;;;;7.50;6.90;;;20.00;99.90;;;;;;5011318;28;20210;-58
2022/08/26 01:52:56;;;;;;;6.75;6.07;;;20.00;99.90;;;;;;5009171;28;20313;-58
2022/08/26 01:55:23;;;;;;;6.93;6.30;;;20.00;99.90;;;;;;5012357;28;20384;-58
2022/08/26 01:57:52;;;;;;;6.85;6.32;;;19.90;99.90;;;;;;5010797;28;20225;-58
2022/08/26 02:00:18;;;;;;;7.63;6.10;;;19.90;99.90;;;;;;5011150;28;20211;-58
2022/08/26 02:02:47;;;;;;;7.87;7.17;;;19.90;99.90;;;;;;4999210;28;20223;-58
2022/08/26 02:05:18;;;;;;;7.10;6.55;;;19.90;99.90;;;;;;5012347;28;20665;-58
2022/08/26 02:07:44;;;;;;;7.18;6.50;;;19.90;99.90;;;;;;5009305;28;20201;-59
2022/08/26 02:10:10;;;;;;;8.52;7.22;;;19.90;99.90;;;;;;5004672;28;20217;-58
2022/08/26 02:12:38;;;;;;;8.07;7.35;;;19.80;99.90;;;;;;5011873;28;20221;-58
2022/08/26 02:15:09;;;;;;;7.72;7.13;;;19.90;99.90;;;;;;5011493;28;20210;-58
2022/08/26 02:17:42;;;;;;;7.55;6.97;;;19.90;99.90;;;;;;5008161;28;20739;-61
2022/08/26 02:20:15;;;;;;;6.85;6.35;;;19.90;99.90;;;;;;5010615;28;20229;-61
2022/08/26 02:22:42;;;;;;;7.60;7.00;;;19.80;99.90;;;;;;5004834;28;20187;-60
2022/08/26 02:25:22;;;;;;;6.85;6.35;;;19.70;99.90;;;;;;5011519;28;20199;-61
2022/08/26 02:27:48;;;;;;;6.80;6.30;;;19.70;99.90;;;;;;5011443;28;20249;-60
2022/08/26 02:30:18;;;;;;;7.00;6.40;;;19.70;99.90;;;;;;5011382;28;20207;-61
2022/08/26 02:32:45;;;;;;;7.57;6.85;;;19.70;99.90;;;;;;5007742;28;21005;-61
2022/08/26 02:35:12;;;;;;;6.90;6.35;;;19.70;99.90;;;;;;5011341;28;20193;-61
2022/08/26 02:37:38;;;;;;;6.43;6.00;;;19.70;99.90;;;;;;5006766;28;20691;-59
2022/08/26 02:40:06;;;;;;;7.47;6.77;;;19.70;99.90;;;;;;5004481;28;20210;-59
2022/08/26 02:42:32;;;;;;;7.30;6.70;;;19.70;99.90;;;;;;5010788;28;20195;-62
2022/08/26 02:44:58;;;;;;;7.63;7.03;;;19.70;99.90;;;;;;5011208;28;20910;-59
2022/08/26 02:47:24;;;;;;;7.17;6.53;;;19.60;99.90;;;;;;5004080;28;20565;-59
2022/08/26 02:49:50;;;;;;;7.45;6.85;;;19.60;99.90;;;;;;5000377;28;20458;-60
2022/08/26 02:52:15;;;;;;;7.80;7.20;;;19.60;99.90;;;;;;5000507;28;20211;-61
2022/08/26 02:54:41;;;;;;;7.27;6.67;;;19.60;99.90;;;;;;4994035;28;20530;-61
2022/08/26 02:57:08;;;;;;;7.37;6.77;;;19.60;99.90;;;;;;5010595;28;20669;-61
2022/08/26 02:59:34;;;;;;;6.82;6.20;;;19.50;99.90;;;;;;5009765;28;21228;-61
2022/08/26 03:02:00;;;;;;;8.05;7.35;;;19.50;99.90;;;;;;5004155;28;20195;-61
2022/08/26 03:04:26;;;;;;;7.87;7.17;;;19.40;99.90;;;;;;5010579;28;20553;-61
2022/08/26 03:06:52;;;;;;;7.50;7.00;;;19.40;99.90;;;;;;5010806;28;20433;-61
2022/08/26 03:09:18;;;;;;;7.70;7.00;;;19.40;99.90;;;;;;5008639;28;20203;-61
2022/08/26 03:11:45;;;;;;;7.67;7.07;;;19.40;99.90;;;;;;5011589;28;20219;-61
2022/08/26 03:14:12;;;;;;;7.85;7.25;;;19.40;99.90;;;;;;5009817;28;20187;-60
2022/08/26 03:16:38;;;;;;;7.35;6.75;;;19.40;99.90;;;;;;5009818;28;20245;-61
2022/08/26 03:19:06;;;;;;;7.65;6.80;;;19.40;99.90;;;;;;5010204;28;20750;-61
2022/08/26 03:21:33;;;;;;;7.68;6.97;;;19.40;99.90;;;;;;5010060;28;20265;-61
2022/08/26 03:23:59;;;;;;;7.70;7.10;;;19.40;99.90;;;;;;4995366;28;20230;-61
2022/08/26 03:26:25;;;;;;;7.30;6.70;;;19.40;99.90;;;;;;5009817;28;20211;-60
2022/08/26 03:31:35;;;;;;;7.68;7.07;;;19.40;99.90;;;;;;5008847;28;20272;-60
2022/08/26 03:34:02;;;;;;;7.50;6.80;;;19.30;99.90;;;;;;5010529;28;20218;-61
2022/08/26 03:36:27;;;;;;;7.50;6.90;;;19.20;99.90;;;;;;5009752;28;20194;-61
2022/08/26 03:38:53;;;;;;;7.60;7.00;;;19.20;99.90;;;;;;5002458;28;20200;-61
2022/08/26 03:41:20;;;;;;;7.90;7.30;;;19.20;99.90;;;;;;5010057;28;20199;-60
2022/08/26 03:43:47;;;;;;;7.22;6.53;;;19.20;99.90;;;;;;5009904;28;20263;-60
2022/08/26 03:46:13;;;;;;;7.30;6.70;;;19.20;99.90;;;;;;5006769;28;20282;-61
2022/08/26 03:48:39;;;;;;;7.43;6.68;;;19.10;99.90;;;;;;5007517;28;20221;-62
2022/08/26 03:51:12;;;;;;;7.05;6.45;;;19.10;99.90;;;;;;5001981;28;20241;-62
2022/08/26 03:53:37;;;;;;;7.50;6.95;;;18.90;99.90;;;;;;5005287;28;20683;-61
2022/08/26 03:56:04;;;;;;;6.67;6.17;;;19.10;99.90;;;;;;5000743;28;20199;-61
2022/08/26 03:58:30;;;;;;;7.03;6.53;;;19.10;99.90;;;;;;5007960;28;20182;-63
2022/08/26 04:00:56;;;;;;;6.80;6.20;;;19.10;99.90;;;;;;5003179;28;20203;-61
2022/08/26 04:06:07;;;;;;;8.00;7.30;;;19.10;99.90;;;;;;5009741;28;20274;-61
2022/08/26 04:08:33;;;;;;;7.97;7.28;;;19.00;99.90;;;;;;5009085;28;20647;-61
2022/08/26 04:11:00;;;;;;;14.90;8.20;;;19.00;99.90;;;;;;5008550;28;20214;-61
2022/08/26 04:13:26;;;;;;;8.73;7.97;;;19.00;99.90;;;;;;5010027;28;20214;-61
2022/08/26 04:15:52;;;;;;;7.28;6.68;;;19.00;99.90;;;;;;5007607;28;20199;-63
2022/08/26 04:18:17;;;;;;;7.97;7.37;;;19.00;99.90;;;;;;5009344;28;20187;-61
2022/08/26 04:20:43;;;;;;;7.10;6.50;;;18.90;99.90;;;;;;5008673;28;20568;-61
2022/08/26 04:23:09;;;;;;;8.27;7.50;;;19.00;99.90;;;;;;5009937;28;20184;-61
2022/08/26 04:25:34;;;;;;;8.50;7.90;;;19.00;99.90;;;;;;5013570;28;20187;-62
2022/08/26 04:28:01;;;;;;;7.80;7.00;;;19.00;99.90;;;;;;5010562;28;20195;-60
2022/08/26 04:30:27;;;;;;;7.70;7.15;;;19.00;99.90;;;;;;5013633;28;20207;-60
2022/08/26 04:32:52;;;;;;;7.83;7.00;;;18.90;99.90;;;;;;5025735;28;20678;-60
2022/08/26 04:35:18;;;;;;;6.80;6.30;;;18.90;99.90;;;;;;5017739;28;20429;-60
2022/08/26 04:37:43;;;;;;;7.90;7.23;;;18.90;99.90;;;;;;5008126;28;20566;-60
2022/08/26 04:40:10;;;;;;;7.43;6.87;;;18.90;99.90;;;;;;5008433;28;20264;-60
2022/08/26 04:42:35;;;;;;;8.70;7.40;;;18.80;99.90;;;;;;5016733;28;20197;-60
2022/08/26 04:45:02;;;;;;;8.73;7.83;;;18.70;99.90;;;;;;5015573;28;20191;-60
2022/08/26 04:47:28;;;;;;;7.78;7.07;;;18.70;99.90;;;;;;4999016;28;20222;-60
2022/08/26 04:49:55;;;;;;;7.40;6.80;;;18.70;99.90;;;;;;5003121;28;20244;-61
2022/08/26 04:52:20;;;;;;;8.32;7.55;;;18.80;99.90;;;;;;5019082;28;20212;-61
2022/08/26 04:54:46;;;;;;;7.63;6.93;;;18.80;99.90;;;;;;5008543;28;20187;-61
2022/08/26 04:57:12;;;;;;;7.60;7.00;;;18.60;99.90;;;;;;5012592;28;20179;-60
2022/08/26 04:59:37;;;;;;;7.70;7.20;;;18.80;99.90;;;;;;5014238;28;20199;-61
2022/08/26 05:02:03;;;;;;;7.47;6.87;;;18.80;99.90;;;;;;5013749;28;20179;-61
2022/08/26 05:04:29;;;;;;;9.70;7.30;;;18.70;99.90;;;;;;5008716;28;20198;-61
2022/08/26 05:06:55;;;;;;;7.40;6.70;;;18.70;99.90;;;;;;5012915;28;20442;-61
2022/08/26 05:09:21;;;;;;;8.10;7.50;;;18.70;99.90;;;;;;5010319;28;20476;-61
2022/08/26 05:11:47;;;;;;;9.97;8.20;;;18.80;99.90;;;;;;5012774;28;20215;-61
2022/08/26 05:14:13;;;;;;;8.52;7.82;;;18.80;99.90;;;;;;5027330;28;20228;-61
2022/08/26 05:16:39;;;;;;;8.00;7.30;;;18.80;99.90;;;;;;5015813;28;20191;-62
2022/08/26 05:19:05;;;;;;;7.77;7.17;;;18.80;99.90;;;;;;5017121;28;20569;-62
2022/08/26 05:21:31;;;;;;;8.45;7.75;;;19.30;99.90;;;;;;5021987;28;20197;-62
2022/08/26 05:23:57;;;;;;;11.35;9.98;;;19.10;99.90;;;;;;5009593;28;20239;-62
2022/08/26 05:26:25;;;;;;;8.90;7.60;;;18.80;99.90;;;;;;5011918;28;20182;-62
2022/08/26 05:28:51;;;;;;;7.97;7.35;;;19.20;99.90;;;;;;5008384;28;20183;-60
2022/08/26 05:31:23;;;;;;;8.05;7.35;;;19.40;99.90;;;;;;5016244;28;20194;-60
2022/08/26 05:33:49;;;;;;;7.57;6.97;;;19.40;99.90;;;;;;5011351;28;20190;-61
2022/08/26 05:36:17;;;;;;;8.90;8.00;;;19.40;99.90;;;;;;5012484;28;20240;-61
2022/08/26 05:38:43;;;;;;;8.07;7.38;;;19.10;99.90;;;;;;5008875;28;20240;-61
2022/08/26 05:41:18;;;;;;;8.30;7.70;;;19.50;99.90;;;;;;5008005;28;20191;-57
2022/08/26 05:43:44;;;;;;;7.95;7.25;;;19.30;99.90;;;;;;5020260;28;20197;-59
2022/08/26 05:46:10;;;;;;;8.93;8.13;;;19.70;99.90;;;;;;5013618;28;20199;-58
2022/08/26 05:48:36;;;;;;;7.20;6.70;;;19.80;99.90;;;;;;5010344;28;20955;-58
2022/08/26 05:51:05;;;;;;;8.15;7.22;;;19.80;99.90;;;;;;5010839;28;20469;-62
2022/08/26 05:53:31;;;;;;;8.25;7.40;;;19.80;99.90;;;;;;5020206;28;20676;-61
2022/08/26 05:55:57;;;;;;;8.20;7.50;;;19.90;99.90;;;;;;5025230;28;20647;-63
2022/08/26 05:58:24;;;;;;;8.65;7.68;;;19.90;99.90;;;;;;5009523;28;20202;-62
2022/08/26 06:01:20;;;;;;;10.93;9.02;;;20.00;99.90;;;;;;5014614;28;20213;-61
2022/08/26 06:03:50;;;;;;;8.32;7.63;;;19.90;99.90;;;;;;5016131;28;20211;-67
2022/08/26 06:06:24;;;;;;;8.95;8.20;;;19.90;99.90;;;;;;5009443;28;20194;-61
2022/08/26 06:08:50;;;;;;;8.98;6.75;;;19.90;99.90;;;;;;5007831;28;20205;-59
2022/08/26 06:11:20;;;;;;;8.67;7.97;;;19.80;99.90;;;;;;5015431;28;20271;-59
2022/08/26 06:13:46;;;;;;;7.57;6.97;;;19.80;99.90;;;;;;5023087;28;20547;-59
2022/08/26 06:16:14;;;;;;;8.20;7.50;;;19.80;99.90;;;;;;5015338;28;20441;-59
2022/08/26 06:18:42;;;;;;;8.00;7.43;;;19.90;99.90;;;;;;5010268;28;20469;-61
2022/08/26 06:21:24;;;;;;;8.10;7.43;;;20.10;99.90;;;;;;5015376;28;20191;-61
2022/08/26 06:26:36;;;;;;;7.95;7.10;;;20.20;99.90;;;;;;5010664;28;20197;-59
2022/08/26 06:29:03;;;;;;;7.95;7.13;;;20.30;99.90;;;;;;5012606;28;20207;-58
2022/08/26 06:31:30;;;;;;;9.57;7.70;;;20.40;99.90;;;;;;5009474;28;22113;-64
2022/08/26 06:33:57;;;;;;;9.55;7.68;;;20.40;99.90;;;;;;5015168;28;21499;-65
2022/08/26 06:36:25;;;;;;;8.85;8.05;;;20.40;99.90;;;;;;5019390;28;20257;-65
2022/08/26 06:38:53;;;;;;;7.88;7.18;;;20.60;99.90;;;;;;5008927;28;20191;-65
2022/08/26 06:41:20;;;;;;;8.10;7.40;;;20.60;99.90;;;;;;5012413;28;22048;-64
2022/08/26 06:43:46;;;;;;;12.82;9.60;;;20.70;99.90;;;;;;5017031;28;20197;-64
2022/08/26 06:46:13;;;;;;;8.48;7.68;;;20.80;99.90;;;;;;5015946;28;20214;-63
2022/08/26 06:48:39;;;;;;;9.98;7.38;;;20.80;99.90;;;;;;5006870;28;20183;-62
2022/08/26 06:51:06;;;;;;;8.27;7.57;;;20.90;99.90;;;;;;5010483;28;20186;-64
2022/08/26 06:53:31;;;;;;;8.32;7.22;;;21.10;99.90;;;;;;5016122;28;20251;-63
2022/08/26 06:55:57;;;;;;;8.60;7.90;;;21.20;99.90;;;;;;5018094;28;20218;-62
2022/08/26 06:58:22;;;;;;;9.20;8.37;;;21.20;99.90;;;;;;5014548;28;20194;-60
2022/08/26 07:00:48;;;;;;;9.30;8.50;;;21.10;99.90;;;;;;5011469;28;20965;-64
2022/08/26 07:03:13;;;;;;;8.43;7.73;;;21.10;99.90;;;;;;5014659;28;21554;-63
2022/08/26 07:05:39;;;;;;;9.27;8.40;;;21.30;99.90;;;;;;5017180;28;20272;-63
2022/08/26 07:08:05;;;;;;;8.20;7.40;;;21.60;99.90;;;;;;5022830;28;20555;-62
2022/08/26 07:10:31;;;;;;;7.60;7.00;;;21.90;99.90;;;;;;5010622;28;20233;-64
2022/08/26 07:12:56;;;;;;;7.70;7.10;;;22.60;99.90;;;;;;5017534;28;20564;-64
2022/08/26 07:15:22;;;;;;;8.40;6.90;;;23.50;98.90;;;;;;5009847;28;20186;-64
2022/08/26 07:17:47;;;;;;;7.47;6.27;;;24.50;96.90;;;;;;5006467;28;20612;-64
2022/08/26 07:20:13;;;;;;;7.80;6.97;;;26.20;93.80;;;;;;5013485;28;20690;-63
2022/08/26 07:22:39;;;;;;;6.87;6.17;;;27.60;90.00;;;;;;5010160;28;20709;-63
2022/08/26 07:25:06;;;;;;;8.90;6.60;;;29.20;84.40;;;;;;5016830;28;20235;-65
2022/08/26 07:27:33;;;;;;;10.20;8.90;;;30.30;76.30;;;;;;5020825;28;20185;-65
2022/08/26 07:29:59;;;;;;;7.47;6.60;;;29.70;75.30;;;;;;5012333;28;20552;-62
2022/08/26 07:32:25;;;;;;;6.60;6.10;;;31.10;73.60;;;;;;5015121;28;20474;-62
2022/08/26 07:34:51;;;;;;;6.63;6.10;;;31.70;68.90;;;;;;5018493;28;20463;-59
2022/08/26 07:37:16;;;;;;;8.03;6.53;;;32.90;63.40;;;;;;5018792;28;20264;-66
2022/08/26 07:39:43;;;;;;;6.30;5.80;;;33.30;62.00;;;;;;5008876;28;20555;-60
2022/08/26 07:42:11;;;;;;;6.73;6.13;;;34.10;59.30;;;;;;5011743;28;20229;-62
2022/08/26 07:44:38;;;;;;;7.37;6.53;;;34.50;58.00;;;;;;5008578;28;20442;-56
2022/08/26 07:47:04;;;;;;;7.27;6.57;;;34.90;56.20;;;;;;4994376;28;20470;-55
2022/08/26 07:49:30;;;;;;;20.40;18.90;;;35.00;55.30;;;;;;5009762;28;20492;-56
2022/08/26 07:51:55;;;;;;;7.90;7.30;;;34.50;55.00;;;;;;5012645;28;20989;-56
2022/08/26 07:54:22;;;;;;;6.87;6.40;;;34.90;54.70;;;;;;5018444;28;20194;-56
2022/08/26 07:56:48;;;;;;;7.67;6.97;;;35.20;53.50;;;;;;5014078;28;20183;-57
2022/08/26 07:59:13;;;;;;;8.27;6.70;;;34.80;53.70;;;;;;5015812;28;20606;-60
2022/08/26 08:01:39;;;;;;;15.30;14.10;;;35.20;53.40;;;;;;5016749;28;20799;-56
2022/08/26 08:04:06;;;;;;;8.70;7.93;;;35.50;52.70;;;;;;5016398;28;20429;-56
2022/08/26 08:06:32;;;;;;;7.13;6.53;;;35.30;52.30;;;;;;5019412;28;20187;-59
2022/08/26 08:08:59;;;;;;;9.20;7.60;;;35.30;52.20;;;;;;5013564;28;20436;-58
2022/08/26 08:11:27;;;;;;;8.27;7.67;;;35.00;52.70;;;;;;5012790;28;20452;-58
2022/08/26 08:13:54;;;;;;;7.87;7.13;;;34.60;53.30;;;;;;5012242;28;20481;-58
2022/08/26 08:16:19;;;;;;;8.87;7.40;;;34.50;53.80;;;;;;5017483;28;20441;-58
2022/08/26 08:18:45;;;;;;;7.73;7.10;;;33.20;54.00;;;;;;5008980;28;20543;-59
2022/08/26 08:21:11;;;;;;;7.60;7.00;;;33.60;55.50;;;;;;5023798;28;20186;-59
2022/08/26 08:23:37;;;;;;;6.70;6.20;;;34.20;54.10;;;;;;5006442;28;20187;-58
2022/08/26 08:26:08;;;;;;;6.83;5.90;;;33.70;54.20;;;;;;5018236;28;20441;-55
2022/08/26 08:28:35;;;;;;;7.60;5.70;;;33.60;54.60;;;;;;5019368;28;20452;-56
2022/08/26 08:31:01;;;;;;;9.70;9.00;;;34.00;54.10;;;;;;5007862;28;20461;-56
2022/08/26 08:33:29;;;;;;;8.20;6.83;;;35.00;53.00;;;;;;5018646;28;20471;-59
2022/08/26 08:35:58;;;;;;;7.67;6.97;;;35.70;51.90;;;;;;5011228;28;20445;-59
2022/08/26 08:38:24;;;;;;;7.20;6.50;;;36.10;50.60;;;;;;5004721;28;20447;-59
2022/08/26 08:40:50;;;;;;;7.63;7.00;;;37.10;49.70;;;;;;5019953;28;20484;-58
2022/08/26 08:43:38;;;;;;;6.53;6.03;;;38.70;47.30;;;;;;5015445;28;20600;-58
2022/08/26 08:46:11;;;;;;;6.13;5.63;;;39.70;45.00;;;;;;5009711;28;20209;-58
2022/08/26 08:48:42;;;;;;;6.33;5.83;;;40.30;42.90;;;;;;5006906;28;20954;-59
2022/08/26 08:51:22;;;;;;;6.93;6.33;;;40.00;42.40;;;;;;5010683;28;20507;-59
2022/08/26 08:53:51;;;;;;;6.20;5.70;;;40.10;41.90;;;;;;5002222;28;20816;-58
2022/08/26 08:56:40;;;;;;;6.77;6.27;;;41.00;40.50;;;;;;5009516;28;20445;-57
2022/08/26 08:59:16;;;;;;;6.57;6.07;;;40.90;40.10;;;;;;5027910;28;20495;-55
2022/08/26 09:01:50;;;;;;;6.90;6.23;;;39.70;40.10;;;;;;5018368;28;20540;-58
2022/08/26 09:04:41;;;;;;;6.57;6.07;;;39.30;42.00;;;;;;5018809;28;20469;-57
2022/08/26 09:07:12;;;;;;;6.97;6.37;;;38.90;42.60;;;;;;5020116;28;20445;-55
2022/08/26 09:10:21;;;;;;;7.17;6.57;;;37.40;43.60;;;;;;5016985;28;20465;-56
2022/08/26 09:12:52;;;;;;;7.47;6.87;;;36.70;45.80;;;;;;5007022;28;20552;-56
2022/08/26 09:15:41;;;;;;;7.10;6.40;;;35.20;47.50;;;;;;5023664;28;20520;-57
2022/08/26 09:18:17;;;;;;;8.33;6.80;;;34.70;48.50;;;;;;5010023;28;20457;-56
2022/08/26 09:21:03;;;;;;;7.50;6.90;;;33.60;50.50;;;;;;5006846;28;20557;-56
2022/08/26 09:23:31;;;;;;;6.43;5.87;;;32.70;52.40;;;;;;5001916;28;20475;-56
2022/08/26 09:25:59;;;;;;;6.20;5.70;;;32.10;55.00;;;;;;5011534;28;20442;-57
2022/08/26 09:28:27;;;;;;;7.30;6.70;;;32.20;55.00;;;;;;5008665;28;20532;-56
2022/08/26 09:31:13;;;;;;;9.33;8.40;;;32.10;55.70;;;;;;4999163;28;20484;-56
2022/08/26 09:33:40;;;;;;;7.60;7.00;;;31.60;56.40;;;;;;4983850;28;20473;-61
2022/08/26 09:36:17;;;;;;;7.47;6.87;;;31.20;56.70;;;;;;5016272;28;20445;-55
2022/08/26 09:38:43;;;;;;;9.77;7.27;;;31.20;58.00;;;;;;5011419;28;20980;-56
2022/08/26 09:41:30;;;;;;;7.77;6.97;;;30.90;57.60;;;;;;5010656;28;20548;-54
2022/08/26 09:44:18;;;;;;;7.53;6.80;;;30.50;58.30;;;;;;5014104;28;21050;-55
2022/08/26 09:47:05;;;;;;;7.00;6.50;;;30.40;58.70;;;;;;5006976;28;20469;-56
2022/08/26 09:49:35;;;;;;;7.70;7.00;;;30.60;59.00;;;;;;5014151;28;20881;-55
2022/08/26 09:52:06;;;;;;;7.57;6.87;;;30.30;58.70;;;;;;5008105;28;20551;-55
2022/08/26 09:54:31;;;;;;;9.53;7.03;;;29.80;59.70;;;;;;5007522;28;21033;-54
2022/08/26 09:57:20;;;;;;;7.50;6.80;;;29.90;60.40;;;;;;5015638;28;20448;-54
2022/08/26 09:59:48;;;;;;;7.83;6.93;;;29.90;61.00;;;;;;5000535;28;20218;-54
2022/08/26 10:02:40;;;;;;;8.40;6.90;;;29.90;61.20;;;;;;5009997;28;20556;-54
2022/08/26 10:05:08;;;;;;;9.70;6.90;;;30.10;60.60;;;;;;5014452;28;20494;-54
2022/08/26 10:07:49;;;;;;;7.63;6.70;;;30.20;61.20;;;;;;5007224;28;20453;-55
2022/08/26 10:10:31;;;;;;;7.63;6.93;;;30.60;60.30;;;;;;5012815;28;20989;-54
2022/08/26 10:13:01;;;;;;;10.93;8.93;;;30.50;59.90;;;;;;5013567;28;20472;-55
2022/08/26 10:15:32;;;;;;;10.33;8.50;;;30.70;59.80;;;;;;5006018;28;20503;-55
2022/08/26 10:18:08;;;;;;;13.10;8.00;;;30.80;59.90;;;;;;5012275;28;20445;-55
2022/08/26 10:20:40;;;;;;;7.87;7.00;;;30.80;59.40;;;;;;5007462;28;20552;-55
2022/08/26 10:23:15;;;;;;;7.97;6.53;;;30.70;59.60;;;;;;5005100;28;20456;-55
2022/08/26 10:26:02;;;;;;;8.33;7.50;;;30.50;59.80;;;;;;5016590;28;20445;-55
2022/08/26 10:28:48;;;;;;;7.67;6.93;;;30.50;60.00;;;;;;5011699;28;20972;-55
2022/08/26 10:31:27;;;;;;;8.57;7.73;;;30.50;59.90;;;;;;5012924;28;20484;-55
2022/08/26 10:33:54;;;;;;;9.30;7.83;;;30.40;61.20;;;;;;5009030;28;20479;-55
2022/08/26 10:39:13;;;;;;;9.37;8.23;;;29.90;61.30;;;;;;5008610;28;21023;-55
2022/08/26 10:41:42;;;;;;;9.03;8.07;;;30.00;63.40;;;;;;5012816;28;20496;-55
2022/08/26 10:44:13;;;;;;;9.53;8.53;;;29.90;61.70;;;;;;5010576;28;20447;-55
2022/08/26 10:47:02;;;;;;;11.03;8.23;;;29.70;62.10;;;;;;5011094;28;20954;-55
2022/08/26 10:49:27;;;;;;;9.37;8.20;;;29.80;62.10;;;;;;5011340;28;20479;-55
2022/08/26 10:52:16;;;;;;;8.10;6.97;;;29.80;62.60;;;;;;5012335;28;20446;-55
2022/08/26 10:55:10;;;;;;;9.73;7.30;;;29.80;62.10;;;;;;5012046;28;20187;-55
2022/08/26 10:57:54;;;;;;;8.40;7.50;;;29.90;62.60;;;;;;5002657;28;20452;-58
2022/08/26 11:03:26;;;;;;;9.70;7.87;;;30.10;61.40;;;;;;5010144;28;20517;-58
2022/08/26 11:06:17;;;;;;;7.80;6.30;;;30.00;59.90;;;;;;5010527;28;20811;-59
2022/08/26 11:08:52;;;;;;;7.97;7.07;;;30.00;59.70;;;;;;5005233;28;20455;-62
2022/08/26 11:11:40;;;;;;;6.80;5.90;;;29.70;60.60;;;;;;5005748;28;20846;-61
2022/08/26 11:14:18;;;;;;;8.90;6.83;;;30.10;59.70;;;;;;5011709;28;20449;-61
2022/08/26 11:16:53;;;;;;;7.93;6.70;;;30.20;59.00;;;;;;5007620;28;20882;-60
2022/08/26 11:19:40;;;;;;;8.90;7.83;;;30.30;58.90;;;;;;5009654;28;20460;-63
2022/08/26 11:22:29;;;;;;;8.23;7.30;;;30.80;58.30;;;;;;5017635;28;20445;-64
2022/08/26 11:24:55;;;;;;;7.33;6.00;;;30.90;57.20;;;;;;5009105;28;20446;-63
2022/08/26 11:27:37;;;;;;;7.60;6.80;;;31.10;56.70;;;;;;5012486;28;20811;-62
2022/08/26 11:30:12;;;;;;;6.90;6.20;;;31.20;56.10;;;;;;5007531;28;20195;-61
2022/08/26 11:32:40;;;;;;;8.20;7.40;;;31.20;55.60;;;;;;5006223;28;20807;-63
2022/08/26 11:35:16;;;;;;;6.33;5.73;;;31.30;55.10;;;;;;5010967;28;20441;-62
2022/08/26 11:37:47;;;;;;;7.47;6.80;;;31.60;55.30;;;;;;5007351;28;20451;-62
2022/08/26 11:40:16;;;;;;;10.60;7.50;;;31.80;56.20;;;;;;5008198;28;20458;-62
2022/08/26 11:42:50;;;;;;;8.50;7.30;;;31.70;57.30;;;;;;5011868;28;20435;-64
2022/08/26 11:45:23;;;;;;;10.70;7.23;;;31.70;58.10;;;;;;5011460;28;20442;-61
2022/08/26 11:47:49;;;;;;;8.13;7.03;;;31.40;58.40;;;;;;5013817;28;20483;-62
2022/08/26 11:50:22;;;;;;;7.60;6.73;;;31.30;58.80;;;;;;5011909;28;20457;-63
2022/08/26 11:53:05;;;;;;;9.70;7.30;;;31.10;58.80;;;;;;5004113;28;20465;-70
2022/08/26 11:55:34;;;;;;;7.90;7.10;;;30.80;59.10;;;;;;5011108;28;20456;-59
2022/08/26 11:58:03;;;;;;;9.37;6.80;;;30.80;59.80;;;;;;5012861;28;20437;-60
2022/08/26 12:00:43;;;;;;;10.50;8.37;;;30.80;59.40;;;;;;5005420;28;20510;-59
2022/08/26 12:03:22;;;;;;;8.70;7.70;;;30.90;59.90;;;;;;5004690;28;20446;-59
2022/08/26 12:05:50;;;;;;;9.97;7.40;;;31.20;59.30;;;;;;5007303;28;20516;-59
2022/08/26 12:08:20;;;;;;;9.23;7.43;;;31.20;58.60;;;;;;5015055;28;20515;-59
2022/08/26 12:10:47;;;;;;;8.60;7.60;;;31.10;58.90;;;;;;5005598;28;20548;-59
2022/08/26 12:13:24;;;;;;;8.60;7.10;;;31.40;58.40;;;;;;5008102;28;20493;-59
2022/08/26 12:15:56;;;;;;;11.00;7.23;;;31.50;57.20;;;;;;5012217;28;20862;-59
2022/08/26 12:18:27;;;;;;;7.97;7.20;;;31.50;57.70;;;;;;5009034;28;20493;-59
2022/08/26 12:20:55;;;;;;;9.53;7.20;;;31.70;57.20;;;;;;5011903;28;20460;-59
2022/08/26 12:23:46;;;;;;;10.00;7.33;;;31.60;57.10;;;;;;5012028;28;20442;-59
2022/08/26 12:26:40;;;;;;;6.73;6.10;;;31.80;56.70;;;;;;5008768;28;20441;-59
2022/08/26 12:29:22;;;;;;;9.00;8.10;;;31.80;57.10;;;;;;5005129;28;21990;-59
2022/08/26 12:31:48;;;;;;;8.90;7.60;;;31.90;57.30;;;;;;5009033;28;20444;-60
2022/08/26 12:34:15;;;;;;;11.33;7.83;;;31.90;57.30;;;;;;5007568;28;20441;-59
2022/08/26 12:36:52;;;;;;;8.37;7.67;;;31.70;56.60;;;;;;5016496;28;20464;-59
2022/08/26 12:39:27;;;;;;;7.60;6.90;;;31.70;57.00;;;;;;5000726;28;20793;-59
2022/08/26 12:41:57;;;;;;;9.30;7.57;;;31.70;56.90;;;;;;5007456;28;20434;-60
2022/08/26 12:44:41;;;;;;;9.90;7.80;;;31.70;56.70;;;;;;5016943;28;20890;-59
2022/08/26 12:47:08;;;;;;;10.73;8.00;;;31.70;57.90;;;;;;5018798;28;21057;-59
2022/08/26 12:49:38;;;;;;;9.73;8.80;;;31.70;58.40;;;;;;5015720;28;20960;-59
2022/08/26 12:52:05;;;;;;;13.40;8.83;;;31.70;58.70;;;;;;5013411;28;20524;-59
2022/08/26 12:57:34;;;;;;;9.17;7.20;;;31.80;57.60;;;;;;5018176;28;20438;-59
2022/08/26 13:00:23;;;;;;;15.60;11.53;;;31.80;58.00;;;;;;5010988;28;20485;-59
2022/08/26 13:02:49;;;;;;;12.00;8.10;;;31.80;58.00;;;;;;5011391;28;20474;-61
2022/08/26 13:05:20;;;;;;;9.97;7.20;;;31.60;58.30;;;;;;5015530;28;20443;-62
2022/08/26 13:08:15;;;;;;;9.30;8.33;;;31.60;58.10;;;;;;5008260;28;20921;-62
2022/08/26 13:10:45;;;;;;;9.90;7.03;;;31.50;58.20;;;;;;5012170;28;20457;-62
2022/08/26 13:13:12;;;;;;;11.70;8.00;;;31.40;58.00;;;;;;5007685;28;20530;-61
2022/08/26 13:15:38;;;;;;;7.90;7.10;;;31.30;58.30;;;;;;5014606;28;20473;-61
2022/08/26 13:18:04;;;;;;;9.60;7.70;;;31.10;59.20;;;;;;5003120;28;20482;-61